createdAt,value
2019-02-11T00:02:01.703Z,98749.43
2019-02-11T00:04:33.643Z,98754.78
2019-02-11T00:07:04.020Z,98749.03
2019-02-11T00:09:34.326Z,98730.08
2019-02-11T00:12:14.604Z,98745.50
2019-02-11T00:14:45.106Z,98744.22
2019-02-11T00:17:15.344Z,98741.26
2019-02-11T00:19:45.600Z,98739.40
2019-02-11T00:22:15.942Z,98745.64
2019-02-11T00:24:47.071Z,98737.81
2019-02-11T00:27:17.404Z,98742.98
2019-02-11T00:29:47.725Z,98737.36
2019-02-11T00:32:18.071Z,98737.36
2019-02-11T00:34:48.318Z,98752.79
2019-02-11T00:37:18.568Z,98745.94
2019-02-11T00:39:48.856Z,98746.91
2019-02-11T00:42:19.133Z,98756.50
2019-02-11T00:44:49.399Z,98759.91
2019-02-11T00:47:21.314Z,98756.27
2019-02-11T00:49:51.561Z,98753.45
2019-02-11T00:52:21.819Z,98773.14
2019-02-11T00:54:52.070Z,98778.17
2019-02-11T00:57:22.385Z,98772.27
2019-02-11T00:59:52.633Z,98776.81
2019-02-11T01:02:22.894Z,98781.94
2019-02-11T01:04:53.152Z,98786.48
2019-02-11T01:07:23.405Z,98778.33
2019-02-11T01:09:53.711Z,98781.45
2019-02-11T01:12:23.933Z,98783.98
2019-02-11T01:14:54.198Z,98788.05
2019-02-11T01:17:24.441Z,98788.05
2019-02-11T01:19:54.688Z,98791.00
2019-02-11T01:22:24.935Z,98785.79
2019-02-11T01:24:55.189Z,98787.99
2019-02-11T01:27:25.440Z,98785.91
2019-02-11T01:29:55.748Z,98773.86
2019-02-11T01:32:26.066Z,98788.05
2019-02-11T01:34:56.330Z,98781.81
2019-02-11T01:37:26.611Z,98779.88
2019-02-11T01:39:56.854Z,98776.34
2019-02-11T01:42:27.124Z,98760.34
2019-02-11T01:44:57.426Z,98768.70
2019-02-11T01:47:27.700Z,98759.69
2019-02-11T01:49:57.940Z,98770.38
2019-02-11T01:52:28.204Z,98744.16
2019-02-11T01:54:58.439Z,98754.83
2019-02-11T01:57:28.705Z,98746.14
2019-02-11T01:59:58.972Z,98739.20
2019-02-11T02:02:29.255Z,98738.63
2019-02-11T02:04:59.497Z,98743.67
2019-02-11T02:07:29.773Z,98734.73
2019-02-11T02:10:00.020Z,98726.44
2019-02-11T02:12:30.276Z,98724.91
2019-02-11T02:15:00.533Z,98727.95
2019-02-11T02:17:30.793Z,98723.48
2019-02-11T02:20:01.034Z,98717.17
2019-02-11T02:22:31.313Z,98726.77
2019-02-11T02:25:01.547Z,98717.79
2019-02-11T02:27:34.583Z,98731.72
2019-02-11T02:30:07.265Z,98732.83
2019-02-11T02:32:37.530Z,98750.54
2019-02-11T02:35:07.776Z,98758.88
2019-02-11T02:37:38.020Z,98745.58
2019-02-11T02:40:09.643Z,98743.52
2019-02-11T02:42:39.901Z,98738.64
2019-02-11T02:45:10.521Z,98736.65
2019-02-11T02:47:40.779Z,98737.59
2019-02-11T02:50:11.011Z,98730.75
2019-02-11T02:52:41.272Z,98716.70
2019-02-11T02:55:11.513Z,98718.31
2019-02-11T02:57:41.754Z,98721.40
2019-02-11T03:00:12.072Z,98713.22
2019-02-11T03:02:42.317Z,98712.28
2019-02-11T03:05:12.551Z,98714.35
2019-02-11T03:07:42.812Z,98702.77
2019-02-11T03:10:13.081Z,98704.32
2019-02-11T03:12:43.344Z,98705.52
2019-02-11T03:15:13.600Z,98705.26
2019-02-11T03:17:43.842Z,98699.92
2019-02-11T03:20:14.198Z,98706.56
2019-02-11T03:22:44.447Z,98700.95
2019-02-11T03:25:14.683Z,98699.02
2019-02-11T03:27:44.933Z,98711.06
2019-02-11T03:30:15.203Z,98719.02
2019-02-11T03:32:45.504Z,98706.66
2019-02-11T03:35:15.749Z,98707.34
2019-02-11T03:37:46.013Z,98697.37
2019-02-11T03:40:16.266Z,98706.56
2019-02-11T03:42:46.541Z,98716.72
2019-02-11T03:45:16.796Z,98724.97
2019-02-11T03:47:47.035Z,98731.93
2019-02-11T03:50:17.290Z,98721.25
2019-02-11T03:52:47.568Z,98726.02
2019-02-11T03:55:17.809Z,98737.81
2019-02-11T03:57:48.070Z,98740.75
2019-02-11T04:00:18.308Z,98737.09
2019-02-11T04:02:48.583Z,98744.56
2019-02-11T04:05:18.812Z,98746.55
2019-02-11T04:07:49.056Z,98733.38
2019-02-11T04:10:19.306Z,98744.47
2019-02-11T04:12:49.572Z,98727.47
2019-02-11T04:15:19.831Z,98731.55
2019-02-11T04:17:50.181Z,98719.36
2019-02-11T04:20:20.419Z,98720.31
2019-02-11T04:22:50.671Z,98725.58
2019-02-11T04:25:20.915Z,98731.41
2019-02-11T04:27:52.818Z,98741.91
2019-02-11T04:30:23.076Z,98752.91
2019-02-11T04:32:53.351Z,98752.91
2019-02-11T04:35:23.589Z,98758.39
2019-02-11T04:37:53.875Z,98749.17
2019-02-11T04:40:24.136Z,98760.22
2019-02-11T04:42:54.378Z,98765.42
2019-02-11T04:45:24.619Z,98761.93
2019-02-11T04:47:54.972Z,98775.48
2019-02-11T04:50:25.215Z,98774.16
2019-02-11T04:52:55.508Z,98779.28
2019-02-11T04:55:25.737Z,98792.11
2019-02-11T04:57:55.988Z,98792.21
2019-02-11T05:00:26.224Z,98795.17
2019-02-11T05:02:56.530Z,98796.03
2019-02-11T05:05:26.980Z,98796.03
2019-02-11T05:07:57.255Z,98798.41
2019-02-11T05:10:27.506Z,98803.78
2019-02-11T05:12:57.748Z,98800.11
2019-02-11T05:15:28.002Z,98807.86
2019-02-11T05:17:58.276Z,98801.05
2019-02-11T05:20:28.505Z,98798.97
2019-02-11T05:22:58.817Z,98800.47
2019-02-11T05:25:29.053Z,98797.63
2019-02-11T05:27:59.348Z,98804.52
2019-02-11T05:30:29.621Z,98807.48
2019-02-11T05:32:59.927Z,98818.15
2019-02-11T05:35:31.268Z,98816.43
2019-02-11T05:38:01.510Z,98829.78
2019-02-11T05:40:31.745Z,98819.95
2019-02-11T05:43:01.978Z,98840.64
2019-02-11T05:45:35.378Z,98840.05
2019-02-11T05:48:05.623Z,98844.98
2019-02-11T05:50:35.888Z,98851.95
2019-02-11T05:53:06.151Z,98846.75
2019-02-11T05:55:36.452Z,98842.85
2019-02-11T05:58:06.691Z,98855.95
2019-02-11T06:00:36.925Z,98870.06
2019-02-11T06:03:07.185Z,98873.83
2019-02-11T06:05:38.393Z,98888.53
2019-02-11T06:08:08.659Z,98894.78
2019-02-11T06:10:38.905Z,98907.23
2019-02-11T06:13:09.307Z,98918.30
2019-02-11T06:15:39.530Z,98924.36
2019-02-11T06:18:09.825Z,98927.84
2019-02-11T06:20:40.069Z,98935.86
2019-02-11T06:23:10.339Z,98941.23
2019-02-11T06:25:40.592Z,98946.63
2019-02-11T06:28:10.842Z,98958.31
2019-02-11T06:30:41.135Z,98965.27
2019-02-11T06:33:11.385Z,98969.39
2019-02-11T06:35:41.670Z,98980.70
2019-02-11T06:38:11.890Z,98986.72
2019-02-11T06:40:42.139Z,98996.61
2019-02-11T06:43:12.456Z,99010.00
2019-02-11T06:45:42.687Z,99016.69
2019-02-11T06:48:12.939Z,99021.45
2019-02-11T06:50:43.262Z,99022.30
2019-02-11T06:53:13.608Z,99027.22
2019-02-11T06:55:43.913Z,99030.01
2019-02-11T06:58:14.248Z,99037.39
2019-02-11T07:00:44.500Z,99044.41
2019-02-11T07:03:14.744Z,99047.05
2019-02-11T07:05:45.162Z,99050.23
2019-02-11T07:08:15.447Z,99061.59
2019-02-11T07:10:45.849Z,99064.67
2019-02-11T07:13:16.104Z,99076.49
2019-02-11T07:15:46.335Z,99078.44
2019-02-11T07:18:16.589Z,99083.72
2019-02-11T07:20:46.842Z,99090.88
2019-02-11T07:23:17.131Z,99098.68
2019-02-11T07:25:47.364Z,99102.78
2019-02-11T07:28:17.724Z,99112.52
2019-02-11T07:30:48.068Z,99114.08
2019-02-11T07:40:33.219Z,99130.48
2019-02-11T07:43:20.327Z,99142.38
2019-02-11T07:45:58.128Z,99147.18
2019-02-11T07:48:29.678Z,99162.12
2019-02-11T07:50:59.967Z,99158.53
2019-02-11T07:53:30.204Z,99174.98
2019-02-11T07:56:00.479Z,99185.96
2019-02-11T07:58:30.721Z,99190.46
2019-02-11T08:01:00.974Z,99198.31
2019-02-11T08:03:31.244Z,99201.78
2019-02-11T08:06:01.562Z,99209.84
2019-02-11T08:08:32.957Z,99212.40
2019-02-11T08:11:03.288Z,99210.30
2019-02-11T08:13:33.532Z,99225.52
2019-02-11T08:16:03.781Z,99238.19
2019-02-11T08:18:35.098Z,99238.87
2019-02-11T08:21:05.373Z,99250.69
2019-02-11T08:23:35.624Z,99263.30
2019-02-11T08:26:06.272Z,99259.11
2019-02-11T08:28:36.672Z,99278.01
2019-02-11T08:31:06.998Z,99296.14
2019-02-11T08:33:37.705Z,99303.98
2019-02-11T08:36:07.977Z,99318.14
2019-02-11T08:38:38.209Z,99316.51
2019-02-11T08:41:08.481Z,99327.06
2019-02-11T08:43:39.804Z,99326.80
2019-02-11T08:46:11.053Z,99334.86
2019-02-11T08:48:41.303Z,99347.84
2019-02-11T08:51:11.560Z,99354.09
2019-02-11T08:53:41.800Z,99355.29
2019-02-11T08:56:12.166Z,99366.17
2019-02-11T08:58:42.411Z,99373.50
2019-02-11T09:01:12.657Z,99376.84
2019-02-11T09:03:42.927Z,99384.75
2019-02-11T09:06:13.175Z,99389.07
2019-02-11T09:08:43.521Z,99383.58
2019-02-11T09:11:13.772Z,99398.37
2019-02-11T09:13:44.005Z,99408.66
2019-02-11T09:16:15.223Z,99402.17
2019-02-11T09:18:45.462Z,99409.41
2019-02-11T09:21:15.977Z,99411.31
2019-02-11T09:23:46.373Z,99419.38
2019-02-11T09:26:16.792Z,99422.23
2019-02-11T09:28:46.981Z,99422.48
2019-02-11T09:31:17.246Z,99433.81
2019-02-11T09:33:48.463Z,99434.91
2019-02-11T09:36:18.736Z,99451.41
2019-02-11T09:38:48.947Z,99457.57
2019-02-11T09:41:19.249Z,99456.19
2019-02-11T09:43:49.485Z,99460.05
2019-02-11T09:46:21.001Z,99470.44
2019-02-11T09:48:51.383Z,99479.51
2019-02-11T09:51:23.709Z,99480.16
2019-02-11T09:53:53.916Z,99487.11
2019-02-11T09:56:24.313Z,99493.27
2019-02-11T09:58:54.552Z,99486.36
2019-02-11T10:01:24.652Z,99494.70
2019-02-11T10:03:54.974Z,99495.64
2019-02-11T10:06:27.003Z,99498.00
2019-02-11T10:08:57.256Z,99517.49
2019-02-11T10:11:27.986Z,99496.60
2019-02-11T10:13:58.397Z,99497.33
2019-02-11T10:16:28.807Z,99509.53
2019-02-11T10:18:59.052Z,99501.14
2019-02-11T10:21:29.334Z,99511.35
2019-02-11T10:23:59.623Z,99509.51
2019-02-11T10:26:31.054Z,99514.36
2019-02-11T10:29:01.366Z,99515.31
2019-02-11T10:31:31.645Z,99525.45
2019-02-11T10:34:01.923Z,99535.00
2019-02-11T10:36:32.209Z,99538.78
2019-02-11T10:39:02.535Z,99536.82
2019-02-11T10:41:32.913Z,99539.68
2019-02-11T10:44:03.247Z,99546.21
2019-02-11T10:46:33.583Z,99546.69
2019-02-11T10:49:04.966Z,99563.03
2019-02-11T10:51:35.210Z,99555.08
2019-02-11T10:54:05.453Z,99573.70
2019-02-11T10:56:35.708Z,99571.45
2019-02-11T10:59:05.956Z,99577.09
2019-02-11T11:01:36.224Z,99585.51
2019-02-11T11:04:06.470Z,99595.14
2019-02-11T11:06:36.760Z,99588.78
2019-02-11T11:09:11.208Z,99588.39
2019-02-11T11:11:41.494Z,99592.36
2019-02-11T11:14:11.730Z,99594.69
2019-02-11T11:16:43.685Z,99614.27
2019-02-11T11:19:13.986Z,99604.37
2019-02-11T11:21:44.233Z,99617.70
2019-02-11T11:24:14.471Z,99627.30
2019-02-11T11:26:44.702Z,99623.14
2019-02-11T11:29:15.050Z,99617.95
2019-02-11T11:31:45.327Z,99625.56
2019-02-11T11:34:15.767Z,99630.13
2019-02-11T11:36:46.010Z,99630.02
2019-02-11T11:39:20.802Z,99631.56
2019-02-11T11:41:51.106Z,99638.30
2019-02-11T11:44:21.424Z,99652.91
2019-02-11T11:46:51.664Z,99642.19
2019-02-11T11:49:21.914Z,99651.41
2019-02-11T11:51:53.096Z,99659.14
2019-02-11T11:54:23.514Z,99654.23
2019-02-11T11:56:53.905Z,99658.63
2019-02-11T11:59:24.189Z,99664.41
2019-02-11T12:01:54.419Z,99648.89
2019-02-11T12:04:24.670Z,99690.19
2019-02-11T12:06:54.917Z,99679.19
2019-02-11T12:09:25.585Z,99692.58
2019-02-11T12:11:55.957Z,99685.24
2019-02-11T12:14:26.229Z,99700.95
2019-02-11T12:17:02.286Z,99699.75
2019-02-11T12:19:28.421Z,99713.24
2019-02-11T12:21:59.821Z,99711.92
2019-02-11T12:24:30.423Z,99728.55
2019-02-11T12:27:00.742Z,99723.55
2019-02-11T12:29:31.091Z,99727.56
2019-02-11T12:32:01.355Z,99730.80
2019-02-11T12:34:31.627Z,99732.84
2019-02-11T12:37:01.974Z,99734.83
2019-02-11T12:39:32.393Z,99740.38
2019-02-11T12:42:03.175Z,99755.91
2019-02-11T12:44:33.435Z,99742.00
2019-02-11T12:47:13.823Z,99760.52
2019-02-11T12:49:36.393Z,99789.24
2019-02-11T12:52:06.627Z,99792.41
2019-02-11T12:54:37.351Z,99754.97
2019-02-11T12:57:07.868Z,99762.09
2019-02-11T12:59:38.137Z,99771.25
2019-02-11T13:02:08.384Z,99768.64
2019-02-11T13:04:38.713Z,99775.33
2019-02-11T13:07:08.946Z,99777.70
2019-02-11T13:09:39.210Z,99769.66
2019-02-11T13:12:09.442Z,99781.55
2019-02-11T13:14:39.672Z,99781.09
2019-02-11T13:17:15.674Z,99789.39
2019-02-11T13:19:41.841Z,99792.78
2019-02-11T13:22:12.085Z,99806.35
2019-02-11T13:24:42.354Z,99799.41
2019-02-11T13:27:12.795Z,99810.80
2019-02-11T13:29:43.045Z,99802.89
2019-02-11T13:32:13.299Z,99815.30
2019-02-11T13:34:43.544Z,99815.20
2019-02-11T13:37:13.799Z,99833.03
2019-02-11T13:39:44.026Z,99841.99
2019-02-11T13:42:14.283Z,99841.05
2019-02-11T13:44:44.549Z,99842.69
2019-02-11T13:47:14.820Z,99836.19
2019-02-11T13:49:46.682Z,99849.16
2019-02-11T13:52:17.217Z,99853.35
2019-02-11T13:54:48.767Z,99853.60
2019-02-11T13:57:19.085Z,99857.67
2019-02-11T13:59:49.329Z,99856.25
2019-02-11T14:02:19.560Z,99869.52
2019-02-11T14:04:49.935Z,99865.28
2019-02-11T14:07:20.272Z,99875.45
2019-02-11T14:09:50.509Z,99890.25
2019-02-11T14:12:20.826Z,99890.16
2019-02-11T14:14:51.061Z,99891.11
2019-02-11T14:17:21.319Z,99893.03
2019-02-11T14:19:52.595Z,99911.27
2019-02-11T14:22:22.852Z,99931.23
2019-02-11T14:24:53.214Z,99924.17
2019-02-11T14:27:23.840Z,99937.95
2019-02-11T14:29:53.945Z,99938.45
2019-02-11T14:32:25.875Z,99971.53
2019-02-11T14:34:56.188Z,99961.94
2019-02-11T14:37:26.503Z,99971.90
2019-02-11T14:39:56.846Z,99977.72
2019-02-11T14:42:27.280Z,99993.66
2019-02-11T14:44:57.595Z,100002.87
2019-02-11T14:47:28.832Z,100001.84
2019-02-11T14:49:59.193Z,100017.40
2019-02-11T14:52:29.535Z,100005.58
2019-02-11T14:55:00.179Z,100007.28
2019-02-11T14:57:30.467Z,100019.84
2019-02-11T15:00:03.834Z,100026.36
2019-02-11T15:02:34.314Z,100032.45
2019-02-11T15:05:04.565Z,100023.30
2019-02-11T15:07:36.505Z,100019.61
2019-02-11T15:10:12.061Z,100030.34
2019-02-11T15:12:42.566Z,100029.88
2019-02-11T15:15:13.565Z,100036.25
2019-02-11T15:17:45.117Z,100041.97
2019-02-11T15:20:18.199Z,100053.44
2019-02-11T15:22:48.442Z,100058.09
2019-02-11T15:25:19.263Z,100063.03
2019-02-11T15:27:51.162Z,100072.34
2019-02-11T15:30:21.634Z,100080.69
2019-02-11T15:32:54.552Z,100089.36
2019-02-11T15:35:25.886Z,100086.50
2019-02-11T15:37:56.987Z,100088.91
2019-02-11T15:40:27.542Z,100070.28
2019-02-11T15:42:59.027Z,100113.61
2019-02-11T15:45:29.273Z,100127.46
2019-02-11T15:47:59.566Z,100134.58
2019-02-11T15:50:29.799Z,100139.87
2019-02-11T15:53:00.054Z,100148.31
2019-02-11T15:55:30.577Z,100152.58
2019-02-11T15:58:00.830Z,100148.61
2019-02-11T16:00:31.095Z,100153.86
2019-02-11T16:03:01.436Z,100162.98
2019-02-11T16:05:33.196Z,100164.48
2019-02-11T16:08:03.469Z,100180.47
2019-02-11T16:10:33.765Z,100182.26
2019-02-11T16:13:04.105Z,100187.13
2019-02-11T16:15:35.387Z,100200.77
2019-02-11T16:18:05.623Z,100201.11
2019-02-11T16:20:35.976Z,100212.97
2019-02-11T16:23:07.951Z,100218.34
2019-02-11T16:25:38.205Z,100231.30
2019-02-11T16:28:08.543Z,100230.75
2019-02-11T16:30:38.859Z,100242.81
2019-02-11T16:33:10.942Z,100240.00
2019-02-11T16:35:41.269Z,100247.75
2019-02-11T16:38:11.598Z,100247.63
2019-02-11T16:40:41.867Z,100249.81
2019-02-11T16:43:12.348Z,100261.16
2019-02-11T16:45:42.596Z,100257.50
2019-02-11T16:48:21.013Z,100269.86
2019-02-11T16:50:51.925Z,100281.77
2019-02-11T16:53:22.182Z,100283.91
2019-02-11T16:55:52.463Z,100289.13
2019-02-11T16:58:22.731Z,100296.97
2019-02-11T17:00:52.990Z,100299.34
2019-02-11T17:03:23.248Z,100305.18
2019-02-11T17:05:53.503Z,100314.70
2019-02-11T17:08:23.787Z,100315.28
2019-02-11T17:10:54.017Z,100322.77
2019-02-11T17:13:24.289Z,100326.50
2019-02-11T17:15:54.544Z,100327.43
2019-02-11T17:18:24.795Z,100325.33
2019-02-11T17:20:55.102Z,100328.83
2019-02-11T17:23:26.100Z,100328.63
2019-02-11T17:25:56.348Z,100333.62
2019-02-11T17:28:27.576Z,100344.58
2019-02-11T17:30:58.338Z,100346.80
2019-02-11T17:33:28.658Z,100355.19
2019-02-11T17:35:58.911Z,100363.90
2019-02-11T17:38:29.158Z,100372.33
2019-02-11T17:40:59.508Z,100378.04
2019-02-11T17:43:29.758Z,100387.39
2019-02-11T17:46:00.174Z,100386.14
2019-02-11T17:48:31.197Z,100391.00
2019-02-11T17:51:01.452Z,100391.20
2019-02-11T17:53:32.528Z,100402.27
2019-02-11T17:56:05.894Z,100406.27
2019-02-11T17:58:36.148Z,100417.72
2019-02-11T18:01:06.572Z,100409.70
2019-02-11T18:03:39.509Z,100418.09
2019-02-11T18:06:10.560Z,100422.88
2019-02-11T18:08:40.946Z,100424.66
2019-02-11T18:11:11.428Z,100432.62
2019-02-11T18:13:41.935Z,100442.33
2019-02-11T18:16:12.439Z,100438.79
2019-02-11T18:18:42.758Z,100455.56
2019-02-11T18:21:13.197Z,100467.09
2019-02-11T18:23:43.563Z,100465.83
2019-02-11T18:26:13.848Z,100452.23
2019-02-11T18:28:44.982Z,100477.78
2019-02-11T18:31:15.057Z,100490.10
2019-02-11T18:33:46.366Z,100493.44
2019-02-11T18:36:16.647Z,100480.86
2019-02-11T18:38:47.280Z,100493.30
2019-02-11T18:41:17.712Z,100497.98
2019-02-11T18:43:49.654Z,100509.08
2019-02-11T18:46:20.313Z,100515.26
2019-02-11T18:48:50.890Z,100514.33
2019-02-11T18:51:21.428Z,100518.79
2019-02-11T18:53:51.942Z,100517.50
2019-02-11T18:56:22.213Z,100519.77
2019-02-11T18:58:52.994Z,100525.48
2019-02-11T19:01:24.679Z,100524.66
2019-02-11T19:03:55.738Z,100523.80
2019-02-11T19:06:27.730Z,100520.73
2019-02-11T19:08:59.394Z,100526.38
2019-02-11T19:11:29.770Z,100527.76
2019-02-11T19:14:07.343Z,100546.77
2019-02-11T19:16:37.608Z,100548.95
2019-02-11T19:19:07.931Z,100550.76
2019-02-11T19:21:38.239Z,100559.17
2019-02-11T19:24:08.506Z,100563.25
2019-02-11T19:26:38.877Z,100571.27
2019-02-11T19:29:09.109Z,100579.61
2019-02-11T19:31:39.462Z,100589.83
2019-02-11T19:34:09.719Z,100588.94
2019-02-11T19:36:40.246Z,100598.67
2019-02-11T19:39:10.885Z,100602.60
2019-02-11T19:41:43.025Z,100611.41
2019-02-11T19:44:15.313Z,100615.92
2019-02-11T20:22:11.488Z,100678.14
2019-02-11T20:24:44.063Z,100689.62
2019-02-11T20:27:15.146Z,100693.20
2019-02-11T20:29:45.758Z,100700.40
2019-02-11T20:32:20.138Z,100710.50
2019-02-11T20:34:52.305Z,100714.03
2019-02-11T20:37:24.619Z,100720.22
2019-02-11T20:40:03.140Z,100722.02
2019-02-11T20:42:28.395Z,100739.23
2019-02-11T20:45:00.307Z,100739.23
2019-02-11T20:47:30.542Z,100736.22
2019-02-11T20:50:08.938Z,100746.72
2019-02-11T20:52:37.409Z,100740.97
2019-02-11T20:55:15.532Z,100743.55
2019-02-11T20:57:53.858Z,100751.95
2019-02-11T21:00:25.958Z,100752.87
2019-02-11T21:02:56.381Z,100766.63
2019-02-11T21:05:27.830Z,100764.89
2019-02-11T21:07:58.128Z,100767.16
2019-02-11T21:10:28.419Z,100764.99
2019-02-11T21:13:00.903Z,100777.78
2019-02-11T21:15:33.452Z,100771.19
2019-02-11T21:18:03.903Z,100773.75
2019-02-11T21:20:37.417Z,100774.25
2019-02-11T21:23:09.249Z,100780.85
2019-02-11T21:25:39.511Z,100777.88
2019-02-11T21:28:09.786Z,100778.63
2019-02-11T21:30:44.650Z,100783.42
2019-02-11T21:33:15.407Z,100791.24
2019-02-11T21:35:45.691Z,100794.36
2019-02-11T21:38:16.019Z,100803.84
2019-02-11T21:40:47.285Z,100806.53
2019-02-11T21:43:17.519Z,100800.77
2019-02-11T21:45:47.887Z,100799.34
2019-02-11T21:48:18.152Z,100793.08
2019-02-11T21:50:48.472Z,100801.53
2019-02-11T21:53:21.231Z,100840.73
2019-02-11T21:55:51.548Z,100800.30
2019-02-11T21:58:21.898Z,100798.98
2019-02-11T22:00:52.566Z,100811.78
2019-02-11T22:03:22.828Z,100824.64
2019-02-11T22:05:54.730Z,100814.09
2019-02-11T22:08:25.007Z,100825.84
2019-02-11T22:10:55.508Z,100817.52
2019-02-11T22:13:26.546Z,100837.05
2019-02-11T22:15:56.923Z,100833.50
2019-02-11T22:18:27.162Z,100834.45
2019-02-11T22:20:57.442Z,100839.72
2019-02-11T22:23:27.915Z,100856.03
2019-02-11T22:26:02.902Z,100859.53
2019-02-11T22:28:33.427Z,100858.41
2019-02-11T22:31:04.031Z,100861.80
2019-02-11T22:33:34.306Z,100881.69
2019-02-11T22:36:04.567Z,100878.70
2019-02-11T22:38:34.850Z,100880.95
2019-02-11T22:41:06.671Z,100892.91
2019-02-11T22:43:38.509Z,100879.62
2019-02-11T22:46:09.750Z,100902.88
2019-02-11T22:48:40.015Z,100911.30
2019-02-11T22:51:11.065Z,100910.37
2019-02-11T22:53:41.333Z,100914.85
2019-02-11T22:56:11.604Z,100915.36
2019-02-11T22:58:41.870Z,100905.36
2019-02-11T23:01:13.250Z,100927.48
2019-02-11T23:03:43.604Z,100940.70
2019-02-11T23:06:13.868Z,100942.40
2019-02-11T23:08:44.134Z,100939.60
2019-02-11T23:11:14.435Z,100944.91
2019-02-11T23:13:44.705Z,100955.13
2019-02-11T23:16:14.944Z,100956.01
2019-02-11T23:18:45.207Z,100971.19
2019-02-11T23:21:15.465Z,100966.48
2019-02-11T23:23:45.742Z,100973.66
2019-02-11T23:26:18.429Z,100980.78
2019-02-11T23:28:48.683Z,100983.60
2019-02-11T23:31:18.965Z,100982.41
2019-02-11T23:33:49.253Z,100986.44
2019-02-11T23:36:19.497Z,100988.74
2019-02-11T23:38:49.759Z,100992.73
2019-02-11T23:41:20.035Z,101003.27
2019-02-11T23:43:50.359Z,100994.63
2019-02-11T23:46:20.607Z,101002.14
2019-02-11T23:48:50.953Z,101000.91
2019-02-11T23:51:21.994Z,101008.00
2019-02-11T23:53:52.254Z,101013.77
2019-02-11T23:56:22.537Z,101011.59
2019-02-11T23:58:52.819Z,101010.73
